Time;durP1;ratioP1;P1;durP2;ratioP2;P2;SDS_P1;SDS_P2;PMS_P1;PMS_P2;Temp;Humidity;BMP_temperature;BMP_pressure;BME280_temperature;BME280_humidity;BME280_pressure;Samples;Min_cycle;Max_cycle;Signal;HPM_P1;HPM_P2
2020/12/18 00:00:06;;;;;;;14.03;7.93;;;;;;;5.80;100.00;98927.91;5089118;28;20668;-71
2020/12/18 00:02:32;;;;;;;13.73;7.63;;;;;;;5.86;100.00;98932.59;5091149;28;20228;-71
2020/12/18 00:05:00;;;;;;;16.57;8.10;;;;;;;5.74;100.00;98934.56;5086194;28;20211;-71
2020/12/18 00:07:27;;;;;;;15.40;7.47;;;;;;;5.78;100.00;98935.94;5089745;28;20245;-71
2020/12/18 00:09:54;;;;;;;13.07;7.27;;;;;;;5.75;100.00;98932.78;5078004;28;20210;-71
2020/12/18 00:12:21;;;;;;;15.47;7.70;;;;;;;5.73;100.00;98935.56;5083780;28;20210;-72
2020/12/18 00:14:48;;;;;;;15.37;7.90;;;;;;;5.85;100.00;98929.09;5089216;28;20211;-71
2020/12/18 00:17:15;;;;;;;13.53;8.03;;;;;;;5.86;100.00;98936.09;5082369;28;20231;-71
2020/12/18 00:19:41;;;;;;;13.40;7.87;;;;;;;5.79;100.00;98934.97;5088779;28;20207;-70
2020/12/18 00:22:09;;;;;;;14.23;7.43;;;;;;;5.67;100.00;98937.97;5086220;28;20678;-71
2020/12/18 00:24:36;;;;;;;13.60;8.03;;;;;;;5.62;100.00;98932.28;5090044;28;20219;-73
2020/12/18 00:27:03;;;;;;;16.57;8.80;;;;;;;5.68;100.00;98943.13;5090231;28;20241;-72
2020/12/18 00:29:29;;;;;;;14.87;7.87;;;;;;;5.60;100.00;98940.38;5094220;28;20201;-71
2020/12/18 00:31:58;;;;;;;15.63;8.00;;;;;;;5.59;100.00;98937.88;5092869;28;20211;-71
2020/12/18 00:34:24;;;;;;;14.57;7.87;;;;;;;5.61;100.00;98942.06;5090640;28;20205;-71
2020/12/18 00:36:52;;;;;;;13.53;7.90;;;;;;;5.65;100.00;98945.22;5087719;28;20226;-73
2020/12/18 00:39:20;;;;;;;15.57;8.30;;;;;;;5.62;100.00;98943.72;5092367;28;20630;-71
2020/12/18 00:41:52;;;;;;;13.27;7.70;;;;;;;5.57;100.00;98937.19;5086701;28;20218;-71
2020/12/18 00:44:19;;;;;;;12.93;7.23;;;;;;;5.53;100.00;98936.66;5077255;28;20242;-73
2020/12/18 00:46:46;;;;;;;18.70;8.03;;;;;;;5.56;100.00;98939.00;5080217;28;20230;-71
2020/12/18 00:49:13;;;;;;;17.57;8.63;;;;;;;5.50;100.00;98944.06;5087360;28;20583;-70
2020/12/18 00:51:39;;;;;;;14.83;8.07;;;;;;;5.45;100.00;98941.84;5082157;28;20198;-71
2020/12/18 00:54:07;;;;;;;16.47;7.73;;;;;;;5.42;100.00;98943.94;5089237;28;20203;-71
2020/12/18 00:56:34;;;;;;;15.07;8.40;;;;;;;5.55;100.00;98936.50;5089993;28;20229;-70
2020/12/18 00:59:01;;;;;;;14.33;8.37;;;;;;;5.53;100.00;98943.78;5083435;28;20658;-70
2020/12/18 01:01:28;;;;;;;14.37;8.77;;;;;;;5.50;100.00;98942.25;5083287;28;20275;-70
2020/12/18 01:03:54;;;;;;;16.60;8.43;;;;;;;5.51;100.00;98949.22;5088322;28;20652;-70
2020/12/18 01:06:21;;;;;;;14.80;8.30;;;;;;;5.40;100.00;98959.13;5078568;28;20205;-71
2020/12/18 01:08:48;;;;;;;12.77;7.50;;;;;;;5.46;100.00;98950.59;5086740;28;20219;-71
2020/12/18 01:11:15;;;;;;;15.43;8.20;;;;;;;5.49;100.00;98956.44;5084000;28;20223;-72
2020/12/18 01:13:42;;;;;;;17.80;8.23;;;;;;;5.57;100.00;98961.84;5086032;28;20265;-73
2020/12/18 01:16:11;;;;;;;17.90;8.63;;;;;;;5.63;100.00;98957.78;5087918;28;20221;-71
2020/12/18 01:18:38;;;;;;;14.27;8.00;;;;;;;5.67;100.00;98960.00;5089620;28;20207;-70
2020/12/18 01:21:05;;;;;;;16.03;8.60;;;;;;;5.80;100.00;98962.31;5084214;28;20259;-71
2020/12/18 01:23:32;;;;;;;12.97;8.07;;;;;;;5.80;100.00;98963.19;5087891;28;20230;-70
2020/12/18 01:25:58;;;;;;;14.53;8.30;;;;;;;5.84;100.00;98966.34;5085234;28;20228;-72
2020/12/18 01:28:25;;;;;;;19.17;8.83;;;;;;;5.99;100.00;98963.03;5082739;28;20222;-72
2020/12/18 01:30:53;;;;;;;13.80;8.10;;;;;;;6.14;100.00;98969.50;5083859;28;20571;-72
2020/12/18 01:33:20;;;;;;;13.60;8.20;;;;;;;6.20;100.00;98970.72;5082728;28;20572;-70
2020/12/18 01:35:47;;;;;;;18.47;8.80;;;;;;;6.18;100.00;98965.56;5085184;28;20208;-72
2020/12/18 01:38:13;;;;;;;15.07;7.53;;;;;;;6.24;100.00;98967.63;5076260;28;20231;-70
2020/12/18 01:40:40;;;;;;;19.23;8.17;;;;;;;6.34;100.00;98972.88;5082927;28;20227;-71
2020/12/18 01:43:07;;;;;;;17.20;8.77;;;;;;;6.34;100.00;98968.38;5091189;28;20220;-69
2020/12/18 01:45:34;;;;;;;17.23;8.80;;;;;;;6.38;100.00;98976.84;5091296;28;20199;-70
2020/12/18 01:48:01;;;;;;;17.13;8.90;;;;;;;6.43;100.00;98972.78;5089913;28;20230;-70
2020/12/18 01:50:29;;;;;;;15.00;7.80;;;;;;;6.45;100.00;98968.16;5090186;28;20287;-70
2020/12/18 01:52:56;;;;;;;15.47;8.53;;;;;;;6.38;100.00;98971.56;5087685;28;20209;-71
2020/12/18 01:55:23;;;;;;;16.30;8.57;;;;;;;6.45;100.00;98967.34;5090428;28;20697;-70
2020/12/18 01:57:52;;;;;;;13.50;7.80;;;;;;;6.44;100.00;98960.38;5077753;28;20224;-71
2020/12/18 02:00:18;;;;;;;12.10;7.67;;;;;;;6.40;100.00;98964.31;5084762;28;20211;-71
2020/12/18 02:02:45;;;;;;;15.03;8.37;;;;;;;6.30;100.00;98964.34;5081409;28;20227;-70
2020/12/18 02:05:13;;;;;;;15.23;8.40;;;;;;;6.23;100.00;98959.81;5082155;28;20215;-70
2020/12/18 02:07:49;;;;;;;14.97;7.77;;;;;;;6.09;100.00;98960.34;5087042;28;20300;-70
2020/12/18 02:10:16;;;;;;;13.97;8.13;;;;;;;6.05;100.00;98959.78;5081784;28;20210;-71
2020/12/18 02:12:43;;;;;;;13.83;7.90;;;;;;;6.02;100.00;98957.44;5089068;28;20210;-70
2020/12/18 02:15:10;;;;;;;14.97;8.17;;;;;;;5.94;100.00;98954.69;5083647;28;20205;-70
2020/12/18 02:17:37;;;;;;;15.67;8.37;;;;;;;5.91;100.00;98960.31;5087052;28;20284;-71
2020/12/18 02:20:05;;;;;;;13.67;7.83;;;;;;;5.92;100.00;98959.31;5084624;28;20208;-70
2020/12/18 02:22:33;;;;;;;15.93;7.73;;;;;;;5.80;100.00;98960.53;5087642;28;20304;-70
2020/12/18 02:25:03;;;;;;;13.20;7.57;;;;;;;5.72;100.00;98952.44;5088905;28;20219;-72
2020/12/18 02:27:31;;;;;;;17.23;8.57;;;;;;;5.61;100.00;98949.16;5079926;28;20702;-70
2020/12/18 02:29:58;;;;;;;15.83;7.93;;;;;;;5.62;100.00;98946.34;5086436;28;20213;-72
2020/12/18 02:32:25;;;;;;;14.50;7.53;;;;;;;5.64;100.00;98943.56;5086379;28;20210;-71
2020/12/18 02:34:52;;;;;;;17.33;8.23;;;;;;;5.65;100.00;98954.03;5088782;28;20211;-71
2020/12/18 02:37:19;;;;;;;15.83;8.00;;;;;;;5.72;100.00;98952.44;5074664;28;20222;-70
2020/12/18 02:39:46;;;;;;;14.37;8.00;;;;;;;5.78;100.00;98951.84;5081944;28;20212;-70
2020/12/18 02:42:13;;;;;;;14.23;8.13;;;;;;;5.77;100.00;98944.88;5075058;28;20211;-71
2020/12/18 02:44:41;;;;;;;17.23;7.93;;;;;;;5.77;100.00;98949.34;5078947;28;20215;-71
2020/12/18 02:47:08;;;;;;;16.47;8.43;;;;;;;5.73;100.00;98942.69;5082722;28;20226;-71
2020/12/18 02:49:34;;;;;;;15.60;7.87;;;;;;;5.69;100.00;98943.97;5086544;28;20680;-71
2020/12/18 02:52:03;;;;;;;17.47;8.20;;;;;;;5.62;100.00;98934.91;5083582;28;20203;-71
2020/12/18 02:54:30;;;;;;;15.63;8.03;;;;;;;5.63;100.00;98932.13;5088328;28;20202;-71
2020/12/18 02:56:57;;;;;;;15.67;8.43;;;;;;;5.58;100.00;98931.75;5089187;28;20228;-71
2020/12/18 02:59:24;;;;;;;15.47;8.00;;;;;;;5.58;100.00;98936.22;5090155;28;20222;-71
2020/12/18 03:01:51;;;;;;;15.57;8.10;;;;;;;5.65;100.00;98934.63;5081145;28;20206;-71
2020/12/18 03:04:18;;;;;;;18.20;8.23;;;;;;;5.63;100.00;98936.63;5080501;28;20698;-71
2020/12/18 03:06:45;;;;;;;14.43;8.17;;;;;;;5.70;100.00;98942.97;5084079;28;20245;-71
2020/12/18 03:09:12;;;;;;;15.60;7.67;;;;;;;5.78;100.00;98949.19;5087020;28;20206;-70
2020/12/18 03:11:40;;;;;;;15.63;8.30;;;;;;;5.94;100.00;98940.66;5086264;28;20205;-71
2020/12/18 03:14:06;;;;;;;14.23;8.23;;;;;;;6.02;100.00;98941.56;5084406;28;20203;-71
2020/12/18 03:16:38;;;;;;;15.00;8.47;;;;;;;6.10;100.00;98940.81;5078834;28;20219;-70
2020/12/18 03:19:06;;;;;;;18.17;8.23;;;;;;;6.21;100.00;98938.78;5084140;28;20664;-71
2020/12/18 03:21:33;;;;;;;15.77;8.10;;;;;;;6.30;100.00;98942.34;5088607;28;20207;-71
2020/12/18 03:23:59;;;;;;;15.80;8.43;;;;;;;6.40;100.00;98943.09;5088826;28;20239;-71
2020/12/18 03:26:26;;;;;;;14.93;7.87;;;;;;;6.44;100.00;98939.16;5087839;28;20234;-70
2020/12/18 03:28:53;;;;;;;14.70;7.77;;;;;;;6.46;100.00;98945.97;5084639;28;20210;-71
2020/12/18 03:31:21;;;;;;;16.27;8.97;;;;;;;6.45;100.00;98944.28;5087244;28;20212;-72
2020/12/18 03:33:47;;;;;;;14.50;7.23;;;;;;;6.58;100.00;98951.84;5089744;28;20207;-71
2020/12/18 03:36:15;;;;;;;14.43;7.93;;;;;;;6.65;100.00;98953.75;5079955;28;20208;-71
2020/12/18 03:38:42;;;;;;;12.27;6.87;;;;;;;6.76;100.00;98945.53;5087322;28;20206;-71
2020/12/18 03:41:08;;;;;;;14.67;8.87;;;;;;;6.72;100.00;98946.84;5088601;28;20200;-71
2020/12/18 03:43:35;;;;;;;16.73;8.17;;;;;;;6.85;100.00;98939.31;5079861;28;20224;-71
2020/12/18 03:46:02;;;;;;;14.00;7.63;;;;;;;6.91;100.00;98937.88;5081315;28;20254;-72
2020/12/18 03:48:29;;;;;;;12.97;7.30;;;;;;;6.93;100.00;98941.19;5082527;28;20238;-71
2020/12/18 03:50:56;;;;;;;14.30;8.20;;;;;;;6.96;100.00;98941.69;5082479;28;20660;-71
2020/12/18 03:53:23;;;;;;;12.87;7.70;;;;;;;6.99;100.00;98936.09;5088724;28;20683;-71
2020/12/18 03:55:50;;;;;;;12.70;7.53;;;;;;;7.07;100.00;98941.47;5085715;28;20204;-72
2020/12/18 03:58:17;;;;;;;17.00;8.80;;;;;;;7.08;100.00;98940.47;5078401;28;20227;-72
2020/12/18 04:00:43;;;;;;;13.47;7.80;;;;;;;7.10;100.00;98938.47;5092340;28;20590;-71
2020/12/18 04:03:10;;;;;;;14.00;8.23;;;;;;;7.12;100.00;98931.22;5088059;28;20220;-71
2020/12/18 04:05:37;;;;;;;13.57;7.87;;;;;;;7.12;100.00;98933.03;5088094;28;20546;-71
2020/12/18 04:08:06;;;;;;;17.90;8.40;;;;;;;7.10;100.00;98927.06;5090332;28;20244;-72
2020/12/18 04:10:34;;;;;;;14.63;8.30;;;;;;;7.14;100.00;98921.25;5081776;28;20676;-72
2020/12/18 04:13:01;;;;;;;12.13;7.70;;;;;;;7.24;100.00;98921.97;5083825;28;20217;-71
2020/12/18 04:15:27;;;;;;;13.97;7.70;;;;;;;7.22;100.00;98916.00;5084678;28;20205;-72
2020/12/18 04:17:54;;;;;;;13.63;8.10;;;;;;;7.20;100.00;98923.28;5090744;28;20704;-71
2020/12/18 04:20:21;;;;;;;12.87;7.90;;;;;;;7.24;100.00;98915.81;5089954;28;20196;-71
2020/12/18 04:22:48;;;;;;;14.40;7.97;;;;;;;7.19;100.00;98911.00;5090894;28;20224;-72
2020/12/18 04:25:14;;;;;;;12.67;7.77;;;;;;;7.19;100.00;98903.03;5084799;28;20208;-71
2020/12/18 04:27:42;;;;;;;14.50;8.27;;;;;;;7.07;100.00;98898.16;5087930;28;20250;-71
2020/12/18 04:30:09;;;;;;;12.63;7.40;;;;;;;7.00;100.00;98899.78;5090537;28;20291;-72
2020/12/18 04:32:35;;;;;;;13.63;7.43;;;;;;;6.88;100.00;98907.16;5086678;28;20617;-71
2020/12/18 04:35:03;;;;;;;14.33;8.80;;;;;;;6.77;100.00;98906.59;5087668;28;20200;-72
2020/12/18 04:37:30;;;;;;;15.73;8.40;;;;;;;6.61;100.00;98903.81;5090706;28;20319;-71
2020/12/18 04:39:57;;;;;;;12.63;7.77;;;;;;;6.60;100.00;98896.84;5092059;28;20211;-72
2020/12/18 04:42:24;;;;;;;14.10;7.50;;;;;;;6.61;100.00;98886.06;5081569;28;20209;-71
2020/12/18 04:44:51;;;;;;;17.07;8.67;;;;;;;6.48;100.00;98893.63;5084199;28;20945;-71
2020/12/18 04:47:19;;;;;;;14.13;8.53;;;;;;;6.42;100.00;98901.34;5079828;28;20231;-71
2020/12/18 04:49:46;;;;;;;18.17;7.33;;;;;;;6.29;100.00;98896.44;5084624;28;20568;-72
2020/12/18 04:52:14;;;;;;;15.30;7.90;;;;;;;6.34;100.00;98888.84;5082818;28;20583;-71
2020/12/18 04:54:42;;;;;;;13.17;7.80;;;;;;;6.21;100.00;98898.19;5090730;28;20203;-72
2020/12/18 04:57:10;;;;;;;14.97;7.47;;;;;;;6.11;100.00;98903.56;5090322;28;20231;-72
2020/12/18 04:59:37;;;;;;;15.03;7.60;;;;;;;6.08;100.00;98905.66;5086933;28;20667;-72
2020/12/18 05:02:05;;;;;;;14.43;8.53;;;;;;;6.29;100.00;98904.38;5079788;28;20211;-72
2020/12/18 05:04:32;;;;;;;15.33;7.67;;;;;;;6.25;100.00;98910.97;5084309;28;20231;-71
2020/12/18 05:06:59;;;;;;;15.70;8.60;;;;;;;6.15;100.00;98906.75;5085479;28;20236;-72
2020/12/18 05:09:26;;;;;;;14.97;8.87;;;;;;;6.09;100.00;98902.88;5080924;28;20202;-71
2020/12/18 05:11:53;;;;;;;13.73;8.20;;;;;;;6.14;100.00;98905.91;5082060;28;20660;-72
2020/12/18 05:14:29;;;;;;;18.00;8.43;;;;;;;6.06;100.00;98902.34;5083068;28;20208;-71
2020/12/18 05:16:55;;;;;;;13.77;7.70;;;;;;;6.14;100.00;98903.25;5085745;28;20233;-71
2020/12/18 05:19:23;;;;;;;13.63;8.23;;;;;;;6.19;100.00;98903.63;5082764;28;20216;-71
2020/12/18 05:21:51;;;;;;;13.67;8.23;;;;;;;6.20;100.00;98894.69;5082492;28;20209;-71
2020/12/18 05:24:19;;;;;;;13.27;8.20;;;;;;;6.16;100.00;98893.34;5081482;28;20284;-72
2020/12/18 05:26:46;;;;;;;14.43;8.17;;;;;;;6.17;100.00;98896.81;5088155;28;20702;-71
2020/12/18 05:29:13;;;;;;;17.97;9.23;;;;;;;6.26;100.00;98883.50;5088730;28;20744;-71
2020/12/18 05:31:41;;;;;;;14.30;8.40;;;;;;;6.34;100.00;98890.69;5091101;28;20208;-72
2020/12/18 05:34:08;;;;;;;14.60;8.27;;;;;;;6.34;100.00;98894.16;5086558;28;20198;-72
2020/12/18 05:36:36;;;;;;;17.40;8.27;;;;;;;6.20;100.00;98893.88;5084059;28;21507;-71
2020/12/18 05:39:05;;;;;;;17.50;8.77;;;;;;;6.31;100.00;98902.44;5089061;28;20213;-71
2020/12/18 05:41:32;;;;;;;12.27;7.93;;;;;;;6.42;100.00;98911.94;5083751;28;20257;-71
2020/12/18 05:44:06;;;;;;;19.00;8.87;;;;;;;6.42;100.00;98918.09;5079482;28;20228;-71
2020/12/18 05:46:34;;;;;;;18.03;8.60;;;;;;;6.47;100.00;98917.63;5084807;28;20225;-71
2020/12/18 05:49:02;;;;;;;14.40;7.80;;;;;;;6.41;100.00;98915.59;5079676;28;20215;-72
2020/12/18 05:51:31;;;;;;;15.70;7.93;;;;;;;6.51;100.00;98919.00;5082403;28;20199;-71
2020/12/18 05:54:10;;;;;;;14.30;8.50;;;;;;;6.54;100.00;98922.16;5083389;28;20568;-71
2020/12/18 05:56:37;;;;;;;18.23;8.33;;;;;;;6.57;100.00;98935.13;5084445;28;20243;-72
2020/12/18 05:59:09;;;;;;;15.73;8.40;;;;;;;6.57;100.00;98928.97;5083116;28;20679;-72
2020/12/18 06:01:41;;;;;;;14.60;7.83;;;;;;;6.58;100.00;98928.84;5089917;28;20200;-72
2020/12/18 06:04:13;;;;;;;14.37;8.00;;;;;;;6.35;100.00;98927.63;5096967;28;20227;-72
2020/12/18 06:06:45;;;;;;;14.33;8.13;;;;;;;6.41;100.00;98935.00;5087347;28;20686;-72
2020/12/18 06:09:16;;;;;;;16.47;8.83;;;;;;;6.38;100.00;98929.97;5093520;28;20207;-72
2020/12/18 06:11:43;;;;;;;16.23;8.20;;;;;;;6.41;100.00;98936.78;5083751;28;20228;-72
2020/12/18 06:14:12;;;;;;;14.63;8.03;;;;;;;6.32;100.00;98921.78;5094617;28;20571;-71
2020/12/18 06:16:49;;;;;;;15.60;8.73;;;;;;;6.26;100.00;98927.72;5088134;28;20239;-71
2020/12/18 06:19:17;;;;;;;15.73;8.40;;;;;;;6.30;100.00;98923.78;5089883;28;20210;-72
2020/12/18 06:21:51;;;;;;;15.47;9.17;;;;;;;6.28;100.00;98921.28;5084404;28;20556;-72
2020/12/18 06:24:19;;;;;;;16.87;8.60;;;;;;;6.23;100.00;98928.84;5085116;28;20250;-71
2020/12/18 06:26:46;;;;;;;15.97;8.80;;;;;;;6.18;100.00;98931.13;5077248;28;20245;-70
2020/12/18 06:29:17;;;;;;;18.03;9.07;;;;;;;6.15;100.00;98930.59;5074709;28;20209;-70
2020/12/18 06:31:47;;;;;;;15.63;8.37;;;;;;;6.14;100.00;98927.09;5089020;28;20218;-73
2020/12/18 06:34:23;;;;;;;17.83;9.00;;;;;;;6.14;100.00;98928.94;5086543;28;20240;-71
2020/12/18 06:37:00;;;;;;;18.47;9.17;;;;;;;6.14;100.00;98929.75;5090620;28;20696;-72
2020/12/18 06:39:30;;;;;;;16.73;8.47;;;;;;;6.20;100.00;98930.97;5085872;28;20202;-72
2020/12/18 06:42:13;;;;;;;12.67;8.23;;;;;;;6.22;100.00;98940.44;5084235;28;20208;-72
2020/12/18 06:44:41;;;;;;;16.37;8.67;;;;;;;6.27;100.00;98938.16;5079513;28;20696;-71
2020/12/18 06:47:10;;;;;;;18.23;8.97;;;;;;;6.32;100.00;98927.94;5089380;28;20310;-72
2020/12/18 06:50:06;;;;;;;17.37;9.03;;;;;;;6.38;100.00;98924.69;5077499;28;20217;-71
2020/12/18 06:52:45;;;;;;;17.00;8.37;;;;;;;6.37;100.00;98930.13;5085183;28;20222;-72
2020/12/18 06:55:24;;;;;;;15.40;8.30;;;;;;;6.44;100.00;98926.72;5078030;28;20207;-72
2020/12/18 06:58:09;;;;;;;18.43;8.83;;;;;;;6.42;100.00;98920.75;5079423;28;20228;-72
2020/12/18 07:00:36;;;;;;;19.43;8.73;;;;;;;6.45;100.00;98917.78;5080769;28;20355;-71
2020/12/18 07:03:03;;;;;;;16.90;8.30;;;;;;;6.54;100.00;98919.50;5087335;28;20227;-74
2020/12/18 07:05:32;;;;;;;19.07;9.63;;;;;;;6.63;100.00;98912.44;5088090;28;20584;-71
2020/12/18 07:08:00;;;;;;;15.23;8.57;;;;;;;6.70;100.00;98916.16;5079346;28;20238;-74
2020/12/18 07:10:28;;;;;;;15.17;8.83;;;;;;;6.81;100.00;98905.28;5088420;28;20554;-74
2020/12/18 07:12:58;;;;;;;18.00;9.20;;;;;;;6.85;100.00;98910.13;5084096;28;20204;-79
2020/12/18 07:15:28;;;;;;;17.40;8.23;;;;;;;6.90;100.00;98907.03;5090972;28;20203;-80
2020/12/18 07:17:56;;;;;;;18.10;8.93;;;;;;;6.91;100.00;98901.53;5088704;28;20358;-85
2020/12/18 07:20:27;;;;;;;15.20;8.33;;;;;;;7.03;100.00;98904.75;5087305;28;20208;-79
2020/12/18 07:22:54;;;;;;;16.07;9.17;;;;;;;7.06;100.00;98905.28;5080481;28;20220;-73
2020/12/18 07:25:21;;;;;;;18.33;9.33;;;;;;;7.03;100.00;98902.09;5086420;28;20200;-76
2020/12/18 07:27:48;;;;;;;14.53;8.90;;;;;;;7.12;100.00;98909.97;5078487;28;20233;-74
2020/12/18 07:30:15;;;;;;;15.40;8.63;;;;;;;7.09;100.00;98906.78;5075118;28;20209;-78
2020/12/18 07:32:43;;;;;;;15.33;8.80;;;;;;;7.08;100.00;98913.94;5086396;28;20242;-75
2020/12/18 07:35:10;;;;;;;15.70;9.17;;;;;;;7.18;100.00;98912.00;5083602;28;20213;-73
2020/12/18 07:37:37;;;;;;;16.30;8.37;;;;;;;7.21;100.00;98913.50;5085309;28;20281;-73
2020/12/18 07:40:05;;;;;;;15.80;8.23;;;;;;;7.29;100.00;98908.22;5093722;28;20215;-73
2020/12/18 07:42:33;;;;;;;15.53;8.37;;;;;;;7.37;100.00;98918.91;5086529;28;20213;-73
2020/12/18 07:45:06;;;;;;;15.10;8.20;;;;;;;7.41;100.00;98914.94;5090278;28;20226;-72
2020/12/18 07:47:35;;;;;;;13.40;7.40;;;;;;;7.24;100.00;98903.41;5088211;28;20234;-79
2020/12/18 07:50:05;;;;;;;17.33;8.83;;;;;;;7.42;100.00;98906.78;5089378;28;20201;-77
2020/12/18 07:52:33;;;;;;;16.73;9.60;;;;;;;7.49;100.00;98901.69;5086922;28;20200;-74
2020/12/18 07:55:00;;;;;;;20.37;10.57;;;;;;;7.57;100.00;98905.19;5089344;28;20205;-77
2020/12/18 07:57:27;;;;;;;18.73;10.53;;;;;;;7.66;100.00;98896.28;5089842;28;20235;-79
2020/12/18 08:00:07;;;;;;;18.47;10.23;;;;;;;7.75;100.00;98910.41;5090623;28;20295;-76
2020/12/18 08:02:34;;;;;;;16.47;9.60;;;;;;;7.82;100.00;98898.97;5091230;28;20560;-72
2020/12/18 08:05:01;;;;;;;18.73;10.70;;;;;;;7.83;100.00;98903.31;5086042;28;20708;-73
2020/12/18 08:07:30;;;;;;;22.23;9.93;;;;;;;7.59;100.00;98903.22;5084248;28;20228;-71
2020/12/18 08:09:59;;;;;;;18.30;9.90;;;;;;;7.62;100.00;98907.38;5085260;28;20197;-73
2020/12/18 08:12:28;;;;;;;15.67;9.43;;;;;;;8.00;100.00;98904.16;5087518;28;20204;-72
2020/12/18 08:15:11;;;;;;;17.57;9.90;;;;;;;7.95;100.00;98904.66;5086420;28;20304;-73
2020/12/18 08:17:38;;;;;;;15.67;9.40;;;;;;;7.84;100.00;98907.63;5082810;28;20318;-71
2020/12/18 08:20:06;;;;;;;17.20;9.20;;;;;;;7.98;100.00;98909.66;5082966;28;20208;-73
2020/12/18 08:22:37;;;;;;;16.43;8.93;;;;;;;8.12;100.00;98905.53;5086675;28;20204;-73
2020/12/18 08:25:05;;;;;;;18.73;10.17;;;;;;;8.18;100.00;98905.69;5087183;28;20597;-73
2020/12/18 08:27:37;;;;;;;19.40;9.50;;;;;;;8.56;100.00;98905.09;5088731;28;20254;-72
2020/12/18 08:30:05;;;;;;;15.40;8.67;;;;;;;8.84;100.00;98910.91;5085672;28;20208;-72
2020/12/18 08:32:34;;;;;;;17.73;9.70;;;;;;;8.92;100.00;98910.88;5089716;28;20203;-71
2020/12/18 08:35:01;;;;;;;16.00;9.23;;;;;;;9.08;100.00;98910.88;5086465;28;20201;-74
2020/12/18 08:37:28;;;;;;;17.67;9.23;;;;;;;9.03;100.00;98914.03;5085752;28;20225;-71
2020/12/18 08:39:55;;;;;;;15.07;9.37;;;;;;;9.24;100.00;98909.00;5082958;28;20274;-72
2020/12/18 08:42:22;;;;;;;17.20;8.93;;;;;;;9.10;100.00;98906.22;5082499;28;20208;-71
2020/12/18 08:44:49;;;;;;;16.97;9.00;;;;;;;9.14;100.00;98905.69;5088368;28;20597;-71
2020/12/18 08:47:23;;;;;;;16.87;9.87;;;;;;;9.21;100.00;98901.34;5085749;28;20235;-76
2020/12/18 08:49:51;;;;;;;14.90;9.50;;;;;;;9.31;100.00;98911.81;5091333;28;20681;-73
2020/12/18 08:52:23;;;;;;;20.23;9.33;;;;;;;9.32;100.00;98906.31;5085888;28;20202;-73
2020/12/18 08:54:58;;;;;;;13.20;8.77;;;;;;;9.33;100.00;98913.28;5091134;28;20208;-73
2020/12/18 08:57:26;;;;;;;14.13;8.37;;;;;;;9.33;100.00;98913.28;5085158;28;20299;-73
2020/12/18 08:59:58;;;;;;;16.50;8.87;;;;;;;9.58;100.00;98914.03;5086355;28;20200;-75
2020/12/18 09:02:25;;;;;;;13.13;8.30;;;;;;;9.53;100.00;98911.91;5094105;28;20211;-87
2020/12/18 09:05:17;;;;;;;13.97;8.40;;;;;;;9.91;100.00;98911.06;5085015;28;20236;-74
2020/12/18 09:07:48;;;;;;;17.07;8.47;;;;;;;9.76;100.00;98909.31;5079798;28;20352;-74
2020/12/18 09:10:26;;;;;;;16.13;8.40;;;;;;;9.14;100.00;98902.22;5085120;28;20259;-77
2020/12/18 09:12:53;;;;;;;13.53;8.07;;;;;;;9.22;100.00;98912.81;5092045;28;20288;-72
2020/12/18 09:15:24;;;;;;;11.73;7.70;;;;;;;9.41;100.00;98909.78;5087660;28;20580;-73
2020/12/18 09:18:04;;;;;;;15.63;7.97;;;;;;;9.89;100.00;98902.41;5077613;28;20321;-73
2020/12/18 09:20:33;;;;;;;15.13;7.90;;;;;;;10.02;100.00;98907.16;5089228;28;20193;-80
2020/12/18 09:23:02;;;;;;;12.07;7.13;;;;;;;9.99;100.00;98900.34;5088997;28;20211;-76
2020/12/18 09:25:30;;;;;;;13.10;6.87;;;;;;;9.77;100.00;98900.31;5086975;28;20299;-72
2020/12/18 09:27:58;;;;;;;11.87;7.03;;;;;;;9.66;100.00;98895.38;5091365;28;20221;-75
2020/12/18 09:30:27;;;;;;;15.53;8.53;;;;;;;9.59;100.00;98894.41;5088057;28;20218;-84
2020/12/18 09:33:10;;;;;;;12.27;7.83;;;;;;;9.61;100.00;98901.22;5088427;28;20209;-84
2020/12/18 09:35:39;;;;;;;14.30;7.47;;;;;;;9.59;100.00;98903.22;5090483;28;20210;-82
2020/12/18 09:38:06;;;;;;;11.20;6.33;;;;;;;9.64;100.00;98894.72;5079724;28;20230;-81
2020/12/18 09:40:33;;;;;;;15.53;7.40;;;;;;;9.44;100.00;98896.13;5086904;28;20191;-77
2020/12/18 09:43:00;;;;;;;11.20;7.37;;;;;;;9.48;100.00;98898.25;5087319;28;20223;-73
2020/12/18 09:45:27;;;;;;;11.03;6.43;;;;;;;9.64;100.00;98900.84;5082734;28;20683;-72
2020/12/18 09:47:54;;;;;;;11.33;6.50;;;;;;;9.70;100.00;98899.34;5081805;28;20320;-72
2020/12/18 09:50:21;;;;;;;11.57;6.60;;;;;;;9.70;100.00;98892.16;5086980;28;20211;-72
2020/12/18 09:52:48;;;;;;;10.10;6.00;;;;;;;9.75;100.00;98895.13;5088081;28;20258;-71
2020/12/18 09:55:16;;;;;;;9.23;6.27;;;;;;;9.91;100.00;98892.41;5084949;28;20214;-72
2020/12/18 09:57:42;;;;;;;10.57;7.10;;;;;;;10.07;100.00;98889.69;5082651;28;20234;-72
2020/12/18 10:00:10;;;;;;;11.37;6.00;;;;;;;10.17;100.00;98886.78;5084630;28;20218;-71
2020/12/18 10:02:36;;;;;;;11.57;6.00;;;;;;;10.32;100.00;98880.50;5088584;28;20207;-71
2020/12/18 10:05:04;;;;;;;11.60;6.30;;;;;;;10.27;100.00;98880.22;5080542;28;20227;-78
2020/12/18 10:07:31;;;;;;;9.87;5.83;;;;;;;10.17;100.00;98873.44;5083416;28;20644;-71
2020/12/18 10:09:59;;;;;;;12.43;6.17;;;;;;;10.48;100.00;98883.03;5083464;28;20209;-71
2020/12/18 10:12:26;;;;;;;10.90;5.80;;;;;;;10.27;100.00;98885.53;5082386;28;20282;-72
2020/12/18 10:14:53;;;;;;;8.43;5.60;;;;;;;10.63;100.00;98879.59;5083501;28;20212;-70
2020/12/18 10:17:20;;;;;;;9.37;5.67;;;;;;;10.63;100.00;98875.91;5084896;28;20699;-76
2020/12/18 10:19:47;;;;;;;8.83;5.63;;;;;;;10.73;100.00;98881.00;5079858;28;20240;-78
2020/12/18 10:22:14;;;;;;;8.17;5.23;;;;;;;10.18;100.00;98875.09;5087176;28;20209;-78
2020/12/18 10:24:41;;;;;;;10.17;5.77;;;;;;;10.73;100.00;98868.47;5087860;28;20550;-74
2020/12/18 10:27:08;;;;;;;9.27;5.53;;;;;;;10.99;100.00;98868.03;5088061;28;20225;-74
2020/12/18 10:29:35;;;;;;;8.37;5.10;;;;;;;10.82;100.00;98875.41;5086342;28;20304;-75
2020/12/18 10:32:02;;;;;;;7.50;5.20;;;;;;;11.05;100.00;98867.31;5086741;28;20201;-75
2020/12/18 10:34:29;;;;;;;8.97;5.57;;;;;;;10.13;100.00;98864.97;5083613;28;20672;-73
2020/12/18 10:36:56;;;;;;;10.10;5.57;;;;;;;10.74;100.00;98859.47;5087318;28;20281;-76
2020/12/18 10:39:24;;;;;;;8.23;4.80;;;;;;;10.30;100.00;98850.50;5086892;28;20301;-70
2020/12/18 10:41:51;;;;;;;6.53;4.67;;;;;;;10.31;100.00;98865.47;5085881;28;20211;-76
2020/12/18 10:44:19;;;;;;;7.93;4.80;;;;;;;10.34;100.00;98850.97;5087530;28;20584;-70
2020/12/18 10:46:46;;;;;;;7.60;4.40;;;;;;;10.49;100.00;98850.00;5087447;28;20230;-78
2020/12/18 10:49:14;;;;;;;8.53;5.17;;;;;;;10.54;100.00;98844.97;5086542;28;20528;-72
2020/12/18 10:51:42;;;;;;;7.77;4.80;;;;;;;10.98;100.00;98847.69;5079291;28;20205;-72
2020/12/18 10:54:09;;;;;;;10.97;4.63;;;;;;;10.98;100.00;98843.19;5088654;28;20198;-72
2020/12/18 10:56:41;;;;;;;6.93;4.07;;;;;;;10.63;100.00;98841.22;5084609;28;20221;-71
2020/12/18 10:59:08;;;;;;;10.07;5.80;;;;;;;10.66;100.00;98837.34;5084609;28;20204;-72
2020/12/18 11:01:35;;;;;;;9.13;5.83;;;;;;;10.63;100.00;98831.56;5080422;28;20250;-74
2020/12/18 11:04:03;;;;;;;10.30;5.50;;;;;;;11.01;100.00;98821.44;5091381;28;20257;-80
2020/12/18 11:06:30;;;;;;;9.80;6.27;;;;;;;10.61;100.00;98823.72;5085140;28;20199;-77
2020/12/18 11:08:57;;;;;;;10.27;5.90;;;;;;;10.84;100.00;98819.97;5092103;28;20203;-83
2020/12/18 11:11:24;;;;;;;9.30;6.33;;;;;;;10.54;100.00;98818.28;5096765;28;20203;-73
2020/12/18 11:13:51;;;;;;;12.47;6.93;;;;;;;10.67;100.00;98823.00;5091350;28;20199;-83
2020/12/18 11:16:18;;;;;;;11.13;6.77;;;;;;;10.42;100.00;98818.88;5104657;22;20185;-81
2020/12/18 11:18:48;;;;;;;9.83;6.77;;;;;;;10.85;100.00;98816.28;5059324;28;20215;-80
2020/12/18 11:21:15;;;;;;;12.73;6.87;;;;;;;11.25;100.00;98802.47;5058721;28;20208;-80
2020/12/18 11:23:41;;;;;;;10.30;6.73;;;;;;;11.22;100.00;98807.38;5058374;28;20234;-79
2020/12/18 11:26:10;;;;;;;12.90;7.43;;;;;;;10.65;100.00;98807.16;5052378;28;20201;-78
2020/12/18 11:28:36;;;;;;;9.07;6.60;;;;;;;10.62;100.00;98798.69;5058549;28;20201;-78